Time;durP1;ratioP1;P1;durP2;ratioP2;P2;SDS_P1;SDS_P2;PMS_P1;PMS_P2;Temp;Humidity;BMP_temperature;BMP_pressure;BME280_temperature;BME280_humidity;BME280_pressure;Samples;Min_cycle;Max_cycle;Signal;HPM_P1;HPM_P2
2021/01/23 00:02:20;;;;;;;16.53;8.00;;;5.30;99.90;;;;;;4963457;28;20185;-88
2021/01/23 00:04:46;;;;;;;17.50;7.97;;;5.50;99.90;;;;;;4976605;28;20275;-89
2021/01/23 00:07:12;;;;;;;13.87;6.73;;;5.60;99.90;;;;;;4961544;28;20189;-88
2021/01/23 00:09:37;;;;;;;18.77;8.00;;;5.50;99.90;;;;;;4975177;28;20696;-88
2021/01/23 00:12:04;;;;;;;16.80;7.50;;;5.50;99.90;;;;;;4976307;28;20191;-88
2021/01/23 00:14:30;;;;;;;16.60;6.87;;;5.70;99.90;;;;;;4957401;28;20271;-87
2021/01/23 00:16:55;;;;;;;13.87;6.97;;;5.70;99.90;;;;;;4960612;28;20751;-89
2021/01/23 00:19:21;;;;;;;15.65;7.72;;;5.90;99.90;;;;;;4960879;28;20441;-88
2021/01/23 00:21:47;;;;;;;15.13;6.43;;;6.00;99.90;;;;;;4991557;28;20197;-88
2021/01/23 00:24:13;;;;;;;12.07;6.27;;;6.10;99.90;;;;;;4961911;28;20217;-88
2021/01/23 00:26:42;;;;;;;17.43;6.53;;;6.10;99.90;;;;;;4981188;28;20233;-89
2021/01/23 00:29:08;;;;;;;13.77;5.97;;;6.20;99.90;;;;;;4958867;28;20274;-88
2021/01/23 00:31:33;;;;;;;14.63;5.67;;;6.30;99.90;;;;;;4958533;28;20217;-89
2021/01/23 00:33:59;;;;;;;16.40;6.80;;;6.40;99.90;;;;;;4991901;28;20194;-88
2021/01/23 00:36:24;;;;;;;19.53;6.50;;;6.50;99.90;;;;;;4974998;28;20213;-88
2021/01/23 00:38:50;;;;;;;15.53;5.70;;;6.60;99.90;;;;;;4945635;28;20200;-89
2021/01/23 00:41:16;;;;;;;14.73;6.60;;;6.60;99.90;;;;;;4987770;28;20190;-88
2021/01/23 00:43:41;;;;;;;16.83;6.43;;;6.80;99.90;;;;;;4957878;28;20641;-89
2021/01/23 00:46:07;;;;;;;15.73;5.60;;;6.70;99.90;;;;;;4960057;28;20648;-88
2021/01/23 00:48:33;;;;;;;17.20;6.13;;;6.70;99.90;;;;;;4973854;28;20688;-88
2021/01/23 00:50:58;;;;;;;17.53;5.90;;;6.60;99.90;;;;;;4958948;28;20299;-89
2021/01/23 00:53:24;;;;;;;16.33;5.83;;;6.60;99.90;;;;;;4959282;28;20181;-88
2021/01/23 00:55:51;;;;;;;15.77;6.20;;;6.60;99.90;;;;;;4978480;28;20553;-90
2021/01/23 00:58:16;;;;;;;13.90;5.57;;;6.60;99.90;;;;;;4974550;28;20179;-88
2021/01/23 01:00:44;;;;;;;18.37;5.43;;;6.70;99.90;;;;;;4977188;28;20398;-88
2021/01/23 01:03:11;;;;;;;15.20;6.03;;;6.70;99.90;;;;;;4976664;28;20196;-88
2021/01/23 01:05:46;;;;;;;14.33;6.30;;;6.70;99.90;;;;;;4958049;28;20592;-88
2021/01/23 01:08:12;;;;;;;15.60;6.20;;;6.70;99.90;;;;;;4974626;28;20184;-88
2021/01/23 01:10:42;;;;;;;17.27;6.63;;;6.60;99.90;;;;;;4973860;28;20179;-88
2021/01/23 01:13:07;;;;;;;16.03;5.60;;;6.60;99.90;;;;;;4956938;28;20822;-87
2021/01/23 01:15:33;;;;;;;16.03;5.73;;;6.70;99.90;;;;;;4980323;28;20195;-87
2021/01/23 01:17:58;;;;;;;14.47;5.47;;;6.70;99.90;;;;;;4989632;28;20188;-88
2021/01/23 01:20:24;;;;;;;14.07;5.50;;;6.60;99.90;;;;;;4975169;28;20187;-87
2021/01/23 01:22:50;;;;;;;13.33;5.60;;;6.60;99.90;;;;;;4972720;28;20701;-88
2021/01/23 01:25:15;;;;;;;13.30;5.10;;;6.60;99.90;;;;;;4955546;28;20218;-88
2021/01/23 01:27:41;;;;;;;13.17;5.67;;;6.70;99.90;;;;;;4990820;28;20282;-87
2021/01/23 01:30:07;;;;;;;14.57;5.40;;;6.60;99.90;;;;;;4955719;28;20310;-87
2021/01/23 01:32:33;;;;;;;14.27;5.70;;;6.60;99.90;;;;;;4975056;28;20188;-87
2021/01/23 01:34:59;;;;;;;13.40;5.43;;;6.70;99.90;;;;;;4957315;28;20224;-88
2021/01/23 01:37:24;;;;;;;14.97;5.67;;;6.70;99.90;;;;;;4989506;28;20211;-88
2021/01/23 01:39:50;;;;;;;15.80;5.93;;;6.70;99.90;;;;;;4958385;28;20546;-88
2021/01/23 01:42:16;;;;;;;15.00;5.57;;;6.70;99.90;;;;;;4973468;28;20191;-88
2021/01/23 01:44:41;;;;;;;12.87;5.57;;;6.80;99.90;;;;;;4974163;28;20261;-87
2021/01/23 01:47:07;;;;;;;15.10;5.70;;;6.90;99.90;;;;;;4977836;28;20210;-88
2021/01/23 01:49:32;;;;;;;13.20;5.23;;;7.00;99.90;;;;;;4957261;28;20676;-88
2021/01/23 01:51:58;;;;;;;15.40;5.97;;;7.10;99.90;;;;;;4977780;28;20187;-88
2021/01/23 01:54:25;;;;;;;16.83;6.03;;;6.90;99.90;;;;;;4972699;28;20270;-88
2021/01/23 01:56:52;;;;;;;15.97;5.57;;;6.80;99.90;;;;;;4974190;28;20188;-87
2021/01/23 01:59:18;;;;;;;15.73;5.90;;;6.60;99.90;;;;;;4974011;28;20217;-88
2021/01/23 02:01:44;;;;;;;17.27;6.60;;;6.60;99.90;;;;;;4942835;28;20187;-88
2021/01/23 02:04:24;;;;;;;17.57;6.07;;;6.60;99.90;;;;;;4974110;28;20213;-88
2021/01/23 02:07:19;;;;;;;14.77;5.60;;;6.60;99.90;;;;;;4956946;28;20566;-86
2021/01/23 02:10:06;;;;;;;12.73;5.50;;;6.60;99.90;;;;;;4952066;28;20197;-87
2021/01/23 02:12:39;;;;;;;16.07;5.87;;;6.60;99.90;;;;;;4957105;28;20201;-87
2021/01/23 02:15:20;;;;;;;13.57;5.47;;;6.70;99.90;;;;;;4958060;28;20662;-87
2021/01/23 02:17:52;;;;;;;16.07;5.13;;;6.60;99.90;;;;;;4972177;28;20184;-87
2021/01/23 02:20:50;;;;;;;15.03;5.63;;;6.60;99.90;;;;;;4972150;28;20267;-88
2021/01/23 02:23:45;;;;;;;14.67;5.67;;;6.50;99.90;;;;;;4976840;28;20180;-88
2021/01/23 02:26:25;;;;;;;14.93;5.30;;;6.40;99.90;;;;;;4969534;28;20236;-86
2021/01/23 02:29:05;;;;;;;16.30;5.40;;;6.40;99.90;;;;;;4972657;28;20542;-88
2021/01/23 02:31:37;;;;;;;15.13;5.17;;;6.40;99.90;;;;;;4991665;28;20645;-87
2021/01/23 02:34:05;;;;;;;12.53;5.37;;;6.40;99.90;;;;;;4958357;28;20247;-88
2021/01/23 02:36:32;;;;;;;13.03;5.17;;;6.30;99.90;;;;;;4973444;28;20219;-85
2021/01/23 02:39:01;;;;;;;13.17;5.23;;;6.20;99.90;;;;;;4977586;28;20239;-87
2021/01/23 02:41:28;;;;;;;11.13;4.63;;;6.20;99.90;;;;;;4979807;28;20210;-88
2021/01/23 02:43:53;;;;;;;17.80;5.47;;;6.20;99.90;;;;;;4943658;28;20247;-88
2021/01/23 02:46:19;;;;;;;17.93;5.50;;;6.10;99.90;;;;;;4978806;28;20226;-88
2021/01/23 02:48:47;;;;;;;13.17;5.30;;;6.10;99.90;;;;;;4961324;28;20195;-89
2021/01/23 02:51:23;;;;;;;15.43;6.30;;;6.10;99.90;;;;;;4976224;28;20435;-89
2021/01/23 02:53:51;;;;;;;11.90;5.60;;;6.00;99.90;;;;;;4976667;28;20201;-88
2021/01/23 02:56:24;;;;;;;15.83;5.40;;;6.00;99.90;;;;;;4975258;28;20565;-88
2021/01/23 02:58:52;;;;;;;12.47;5.00;;;6.00;99.90;;;;;;5009983;28;20189;-88
2021/01/23 03:01:23;;;;;;;15.97;5.57;;;6.00;99.90;;;;;;4976810;28;21298;-89
2021/01/23 03:03:54;;;;;;;15.20;5.47;;;6.00;99.90;;;;;;4978836;28;20223;-88
2021/01/23 03:06:21;;;;;;;12.57;5.60;;;6.10;99.90;;;;;;4984050;28;20184;-88
2021/01/23 03:08:46;;;;;;;14.13;5.40;;;6.10;99.90;;;;;;4945514;28;20189;-88
2021/01/23 03:11:12;;;;;;;12.73;5.33;;;6.10;99.90;;;;;;4962961;28;20601;-88
2021/01/23 03:13:38;;;;;;;12.73;5.93;;;6.10;99.90;;;;;;4962865;28;20202;-88
2021/01/23 03:16:04;;;;;;;16.00;5.67;;;6.10;99.90;;;;;;4960574;28;20192;-90
2021/01/23 03:18:30;;;;;;;14.83;6.20;;;6.00;99.90;;;;;;4975088;28;20561;-88
2021/01/23 03:20:56;;;;;;;13.80;5.77;;;6.00;99.90;;;;;;4975860;28;20284;-89
2021/01/23 03:23:22;;;;;;;14.80;6.03;;;6.00;99.90;;;;;;4978746;28;20277;-87
2021/01/23 03:25:47;;;;;;;13.00;6.13;;;6.00;99.90;;;;;;4943429;28;20236;-89
2021/01/23 03:28:13;;;;;;;16.37;6.33;;;6.00;99.90;;;;;;4992590;28;20198;-86
2021/01/23 03:30:39;;;;;;;17.00;6.43;;;6.00;99.90;;;;;;4957422;28;20188;-90
2021/01/23 03:33:04;;;;;;;18.80;7.13;;;6.00;99.90;;;;;;4976621;28;20203;-89
2021/01/23 03:35:30;;;;;;;15.93;6.90;;;5.90;99.90;;;;;;4975266;28;20247;-89
2021/01/23 03:37:56;;;;;;;17.80;7.37;;;5.90;99.90;;;;;;4976307;28;20838;-89
2021/01/23 03:40:21;;;;;;;16.63;7.10;;;5.80;99.90;;;;;;4990557;28;20531;-88
2021/01/23 03:42:47;;;;;;;19.30;6.93;;;5.90;99.90;;;;;;4974904;28;20557;-89
2021/01/23 03:45:14;;;;;;;21.27;6.90;;;5.90;99.90;;;;;;4961354;28;20249;-86
2021/01/23 03:47:39;;;;;;;15.40;7.37;;;5.90;99.90;;;;;;4975922;28;20207;-89
2021/01/23 03:50:09;;;;;;;18.97;7.23;;;5.90;99.90;;;;;;4975801;28;20596;-88
2021/01/23 03:52:35;;;;;;;18.60;6.80;;;6.00;99.90;;;;;;4976779;28;20187;-89
2021/01/23 03:55:01;;;;;;;19.97;6.93;;;6.00;99.90;;;;;;4975876;28;20187;-90
2021/01/23 03:57:27;;;;;;;15.23;6.33;;;6.20;99.90;;;;;;4978465;28;20773;-89
2021/01/23 03:59:52;;;;;;;19.57;6.87;;;6.20;99.90;;;;;;4976518;28;20653;-89
2021/01/23 04:02:18;;;;;;;20.03;7.80;;;6.20;99.90;;;;;;4963060;28;20190;-89
2021/01/23 04:04:44;;;;;;;21.97;7.40;;;6.20;99.90;;;;;;4959651;28;20211;-90
2021/01/23 04:07:09;;;;;;;20.63;8.27;;;6.00;99.90;;;;;;4959746;28;20588;-89
2021/01/23 04:09:35;;;;;;;29.03;8.07;;;5.90;99.90;;;;;;4976736;28;20223;-89
2021/01/23 04:12:01;;;;;;;23.00;8.17;;;6.00;99.90;;;;;;4958708;28;20186;-88
2021/01/23 04:14:26;;;;;;;22.23;8.60;;;6.00;99.90;;;;;;4976042;28;20234;-89
2021/01/23 04:16:52;;;;;;;23.97;8.93;;;5.90;99.90;;;;;;4944881;28;20262;-90
2021/01/23 04:19:18;;;;;;;24.40;8.50;;;5.80;99.90;;;;;;4960708;28;20330;-90
2021/01/23 04:21:44;;;;;;;23.13;8.60;;;5.80;99.90;;;;;;4974791;28;20190;-90
2021/01/23 04:24:10;;;;;;;22.23;8.70;;;5.70;99.90;;;;;;4959031;28;20207;-88
2021/01/23 04:26:36;;;;;;;20.40;7.63;;;5.70;99.90;;;;;;4982983;28;20334;-89
2021/01/23 04:29:03;;;;;;;21.90;8.00;;;5.70;99.90;;;;;;4974266;28;20192;-88
2021/01/23 04:31:29;;;;;;;20.63;7.77;;;5.60;99.90;;;;;;4960975;28;20191;-89
2021/01/23 04:33:55;;;;;;;23.67;8.03;;;5.50;99.90;;;;;;4972782;28;20223;-87
2021/01/23 04:36:20;;;;;;;19.70;8.47;;;5.50;99.90;;;;;;4961339;28;20267;-88
2021/01/23 04:38:46;;;;;;;16.30;8.00;;;5.60;99.90;;;;;;4957853;28;20195;-88
2021/01/23 04:41:12;;;;;;;13.90;7.57;;;5.60;99.90;;;;;;4987875;28;20194;-88
2021/01/23 04:43:38;;;;;;;19.53;8.27;;;5.60;99.90;;;;;;4959420;28;20200;-88
2021/01/23 04:46:04;;;;;;;24.13;8.57;;;5.60;99.90;;;;;;4961771;28;20240;-87
2021/01/23 04:48:30;;;;;;;21.00;8.20;;;5.60;99.90;;;;;;4978142;28;20188;-89
2021/01/23 04:50:56;;;;;;;21.47;9.00;;;5.60;99.90;;;;;;4979051;28;20601;-88
2021/01/23 04:53:22;;;;;;;19.53;8.27;;;5.70;99.90;;;;;;4975338;28;20267;-88
2021/01/23 04:55:48;;;;;;;17.33;8.23;;;5.50;99.90;;;;;;4978853;28;20190;-86
2021/01/23 04:58:13;;;;;;;20.53;8.03;;;5.40;99.90;;;;;;4959757;28;20243;-88
2021/01/23 05:00:39;;;;;;;19.17;9.97;;;5.40;99.90;;;;;;4972662;28;20488;-88
2021/01/23 05:03:06;;;;;;;21.23;9.00;;;5.40;99.90;;;;;;4974960;28;20185;-89
2021/01/23 05:05:35;;;;;;;17.30;8.00;;;5.50;99.90;;;;;;4971835;28;20754;-88
2021/01/23 05:08:13;;;;;;;23.30;8.37;;;5.50;99.90;;;;;;4992416;28;20181;-88
2021/01/23 05:10:39;;;;;;;21.25;9.20;;;5.50;99.90;;;;;;4976687;28;20457;-87
2021/01/23 05:13:16;;;;;;;19.60;8.17;;;5.40;99.90;;;;;;4989595;28;20195;-88
2021/01/23 05:15:43;;;;;;;20.40;7.87;;;5.50;99.90;;;;;;4956488;28;20220;-87
2021/01/23 05:18:10;;;;;;;18.73;8.17;;;5.60;99.90;;;;;;4954968;28;20187;-88
2021/01/23 05:20:38;;;;;;;19.30;8.03;;;5.60;99.90;;;;;;4972617;28;20696;-88
2021/01/23 05:23:21;;;;;;;19.90;8.33;;;5.50;99.90;;;;;;4966622;28;20648;-87
2021/01/23 05:25:52;;;;;;;21.70;8.70;;;5.50;99.90;;;;;;4972991;28;20227;-89
2021/01/23 05:28:32;;;;;;;21.23;8.07;;;5.50;99.90;;;;;;4976872;28;20665;-89
2021/01/23 05:31:00;;;;;;;21.87;7.93;;;5.30;99.90;;;;;;4988669;28;20201;-87
2021/01/23 05:33:33;;;;;;;24.27;9.07;;;5.20;99.90;;;;;;4976576;28;20269;-88
2021/01/23 05:36:08;;;;;;;20.07;7.90;;;5.10;99.90;;;;;;4972886;28;20177;-88
2021/01/23 05:38:37;;;;;;;18.80;8.00;;;5.10;99.90;;;;;;4975187;28;20200;-88
2021/01/23 05:41:08;;;;;;;18.00;7.77;;;5.00;99.90;;;;;;4992482;28;20206;-88
2021/01/23 05:43:49;;;;;;;21.00;8.20;;;5.00;99.90;;;;;;4988599;28;20195;-88
2021/01/23 05:46:26;;;;;;;21.50;8.23;;;5.00;99.90;;;;;;4975638;28;20175;-88
2021/01/23 05:48:53;;;;;;;20.07;8.67;;;5.00;99.90;;;;;;4978975;28;20198;-88
2021/01/23 05:51:20;;;;;;;20.93;8.47;;;5.00;99.90;;;;;;4976092;28;20181;-88
2021/01/23 05:53:47;;;;;;;19.07;7.87;;;4.90;99.90;;;;;;4974335;28;20190;-88
2021/01/23 05:56:13;;;;;;;18.40;7.67;;;5.00;99.90;;;;;;4971687;28;20185;-88
2021/01/23 05:58:40;;;;;;;16.67;8.13;;;4.90;99.90;;;;;;4958201;28;20179;-88
2021/01/23 06:01:20;;;;;;;18.67;8.10;;;4.80;99.90;;;;;;4971096;28;20186;-88
2021/01/23 06:03:48;;;;;;;18.17;8.23;;;4.80;99.90;;;;;;4973800;28;20220;-88
2021/01/23 06:06:14;;;;;;;18.70;7.60;;;4.80;99.90;;;;;;4989204;28;20179;-88
2021/01/23 06:08:39;;;;;;;19.73;7.63;;;4.80;99.90;;;;;;4990032;28;20670;-88
2021/01/23 06:11:25;;;;;;;19.03;7.53;;;4.80;99.90;;;;;;4988356;28;20189;-88
2021/01/23 06:13:58;;;;;;;16.57;6.97;;;4.80;99.90;;;;;;4941654;28;20195;-89
2021/01/23 06:16:33;;;;;;;19.53;7.90;;;4.90;99.90;;;;;;4973606;28;20216;-88
2021/01/23 06:19:05;;;;;;;17.40;7.50;;;4.90;99.90;;;;;;4994141;28;20214;-87
2021/01/23 06:21:43;;;;;;;15.27;6.80;;;5.00;99.90;;;;;;4973567;28;20201;-88
2021/01/23 06:24:13;;;;;;;19.97;7.57;;;4.90;99.90;;;;;;4987846;28;20304;-88
2021/01/23 06:26:55;;;;;;;16.97;7.37;;;4.80;99.90;;;;;;4971722;28;20253;-88
2021/01/23 06:29:40;;;;;;;16.97;7.23;;;4.90;99.90;;;;;;4988305;28;20672;-87
2021/01/23 06:32:12;;;;;;;21.43;6.93;;;4.80;99.90;;;;;;4986466;28;20181;-88
2021/01/23 06:34:44;;;;;;;20.47;7.30;;;4.80;99.90;;;;;;4959492;28;20206;-88
2021/01/23 06:37:37;;;;;;;16.07;7.70;;;4.80;99.90;;;;;;4986619;28;20203;-88
2021/01/23 06:40:18;;;;;;;16.70;7.20;;;4.80;99.90;;;;;;4971765;28;20187;-88
2021/01/23 06:42:48;;;;;;;17.80;7.47;;;4.80;99.90;;;;;;4957301;28;20295;-86
2021/01/23 06:45:20;;;;;;;18.03;7.53;;;4.80;99.90;;;;;;4973694;28;20737;-87
2021/01/23 06:47:52;;;;;;;20.00;7.50;;;4.80;99.90;;;;;;4990494;28;20196;-88
2021/01/23 06:50:28;;;;;;;15.03;6.63;;;4.80;99.90;;;;;;4944917;28;20221;-88
2021/01/23 06:52:54;;;;;;;19.13;7.87;;;4.80;99.90;;;;;;4972280;28;20192;-87
2021/01/23 06:55:40;;;;;;;22.83;7.47;;;4.90;99.90;;;;;;4971824;28;20585;-87
2021/01/23 06:58:13;;;;;;;17.47;7.30;;;4.90;99.90;;;;;;4972130;28;20258;-88
2021/01/23 07:00:38;;;;;;;17.83;6.93;;;4.90;99.90;;;;;;4974406;28;20213;-88
2021/01/23 07:03:14;;;;;;;15.40;7.30;;;4.90;99.90;;;;;;4940706;28;20238;-88
2021/01/23 07:05:48;;;;;;;18.03;7.43;;;4.80;99.90;;;;;;4974653;28;20570;-88
2021/01/23 07:08:27;;;;;;;19.43;7.80;;;4.80;99.90;;;;;;4971887;28;20188;-89
2021/01/23 07:11:32;;;;;;;16.67;7.10;;;4.80;99.90;;;;;;4989288;28;20192;-89
2021/01/23 07:14:02;;;;;;;17.87;8.03;;;4.70;99.90;;;;;;4947299;28;20207;-88
2021/01/23 07:16:29;;;;;;;20.20;7.73;;;4.80;99.90;;;;;;4950606;28;20228;-87
2021/01/23 07:18:57;;;;;;;21.33;8.70;;;4.90;99.90;;;;;;4939041;28;20193;-88
2021/01/23 07:21:25;;;;;;;16.30;7.93;;;4.90;99.90;;;;;;4956658;28;20317;-88
2021/01/23 07:23:53;;;;;;;17.07;7.33;;;4.90;99.90;;;;;;4956219;28;20220;-88
2021/01/23 07:26:19;;;;;;;17.47;8.40;;;4.90;99.90;;;;;;4978682;28;20658;-86
2021/01/23 07:28:54;;;;;;;16.97;7.87;;;4.80;99.90;;;;;;4958171;28;20248;-88
2021/01/23 07:31:22;;;;;;;22.00;8.27;;;4.70;99.90;;;;;;4957679;28;20183;-87
2021/01/23 07:33:49;;;;;;;20.40;8.13;;;4.80;99.90;;;;;;4974294;28;20192;-88
2021/01/23 07:36:35;;;;;;;18.30;8.23;;;4.80;99.90;;;;;;4977277;28;20272;-87
2021/01/23 07:39:07;;;;;;;22.70;8.87;;;4.70;99.90;;;;;;4992022;28;20204;-89
2021/01/23 07:41:38;;;;;;;20.07;8.80;;;4.80;99.90;;;;;;5008080;28;20257;-88
2021/01/23 07:44:08;;;;;;;19.37;8.83;;;4.80;99.90;;;;;;4977430;28;20588;-88
2021/01/23 07:46:36;;;;;;;17.90;8.47;;;4.80;99.90;;;;;;4959802;28;20215;-86
2021/01/23 07:49:02;;;;;;;20.33;8.47;;;4.90;99.90;;;;;;4975011;28;20248;-88
2021/01/23 07:51:28;;;;;;;20.90;8.70;;;4.90;99.90;;;;;;4960914;28;20188;-87
2021/01/23 07:54:13;;;;;;;20.93;9.73;;;4.90;99.90;;;;;;4977320;28;20227;-87
2021/01/23 07:56:59;;;;;;;19.47;8.87;;;5.00;99.90;;;;;;4947325;28;20190;-88
2021/01/23 07:59:45;;;;;;;18.27;8.50;;;5.10;99.90;;;;;;4941632;28;20206;-88
2021/01/23 08:02:11;;;;;;;20.33;8.80;;;5.30;99.90;;;;;;4976558;28;20674;-88
2021/01/23 08:04:39;;;;;;;20.13;8.40;;;5.50;99.90;;;;;;4974656;28;20219;-88
2021/01/23 08:07:25;;;;;;;15.73;7.83;;;5.50;99.90;;;;;;4960664;28;20217;-88
2021/01/23 08:10:07;;;;;;;14.43;7.93;;;5.80;99.90;;;;;;4991552;28;20191;-87
2021/01/23 08:12:34;;;;;;;17.93;8.17;;;5.90;99.90;;;;;;4992552;28;20273;-87
2021/01/23 08:15:00;;;;;;;17.07;7.60;;;5.90;99.90;;;;;;4963047;28;20606;-87
2021/01/23 08:17:46;;;;;;;17.37;8.03;;;6.00;99.90;;;;;;4967027;28;20191;-89
2021/01/23 08:20:17;;;;;;;19.47;7.40;;;6.10;99.90;;;;;;4978808;28;20196;-88
2021/01/23 08:23:03;;;;;;;19.47;8.00;;;6.20;99.90;;;;;;4959587;28;20196;-88
2021/01/23 08:25:51;;;;;;;22.83;8.00;;;6.50;99.90;;;;;;4981862;28;20226;-87
2021/01/23 08:28:42;;;;;;;16.27;7.10;;;6.60;99.90;;;;;;4992052;28;20195;-88
2021/01/23 08:31:15;;;;;;;17.13;7.30;;;6.70;99.90;;;;;;4978999;28;20212;-88
2021/01/23 08:33:41;;;;;;;22.70;7.87;;;6.80;99.90;;;;;;5024336;28;20223;-88
2021/01/23 08:36:08;;;;;;;18.00;7.50;;;6.90;99.90;;;;;;4982457;28;20220;-87
2021/01/23 08:38:34;;;;;;;18.27;8.13;;;6.90;99.90;;;;;;4966624;28;20217;-88
2021/01/23 08:41:00;;;;;;;18.50;7.50;;;7.00;99.90;;;;;;4988755;28;20623;-87
2021/01/23 08:43:28;;;;;;;16.83;7.57;;;7.20;99.90;;;;;;4975905;28;20198;-87
2021/01/23 08:45:55;;;;;;;20.17;7.37;;;7.30;99.90;;;;;;4992168;28;20232;-87
2021/01/23 08:48:20;;;;;;;24.67;7.70;;;7.50;99.90;;;;;;4976806;28;20183;-88
2021/01/23 08:50:46;;;;;;;15.57;6.47;;;7.70;99.90;;;;;;4977704;28;20210;-86
2021/01/23 08:53:11;;;;;;;19.10;6.87;;;7.80;99.90;;;;;;4980208;28;20220;-87
2021/01/23 08:55:37;;;;;;;18.40;6.57;;;7.90;99.90;;;;;;4960811;28;20319;-87
2021/01/23 08:58:03;;;;;;;16.13;6.30;;;7.70;99.90;;;;;;5009417;28;20198;-87
2021/01/23 09:00:29;;;;;;;20.50;6.50;;;7.60;99.90;;;;;;4959580;28;20205;-88
2021/01/23 09:02:54;;;;;;;17.63;7.40;;;7.70;99.90;;;;;;4992907;28;20192;-88
2021/01/23 09:05:20;;;;;;;15.43;6.40;;;7.70;99.90;;;;;;4991071;28;20232;-88
2021/01/23 09:07:46;;;;;;;15.57;5.63;;;7.80;99.90;;;;;;4943352;28;20194;-87
2021/01/23 09:10:13;;;;;;;15.80;5.47;;;7.80;99.90;;;;;;4962189;28;20225;-87
2021/01/23 09:12:39;;;;;;;16.67;6.07;;;7.90;99.90;;;;;;4973842;28;20241;-88
2021/01/23 09:15:07;;;;;;;12.20;5.40;;;7.90;99.90;;;;;;4992045;28;20673;-88
2021/01/23 09:17:33;;;;;;;17.60;5.90;;;8.00;99.90;;;;;;4976512;28;21212;-87
2021/01/23 09:19:59;;;;;;;11.33;5.67;;;8.10;99.90;;;;;;4973660;28;20608;-87
2021/01/23 09:22:24;;;;;;;12.23;5.77;;;8.20;99.90;;;;;;4943660;28;20187;-87
2021/01/23 09:24:50;;;;;;;13.90;5.40;;;8.20;99.90;;;;;;4972189;28;20246;-86
2021/01/23 09:27:16;;;;;;;17.33;6.00;;;8.00;99.90;;;;;;4974524;28;20202;-87
2021/01/23 09:29:42;;;;;;;14.03;5.17;;;7.70;99.90;;;;;;4989867;28;20236;-87
2021/01/23 09:32:08;;;;;;;16.77;6.00;;;7.60;99.90;;;;;;4958103;28;20193;-87
2021/01/23 09:34:34;;;;;;;16.63;6.13;;;7.60;99.90;;;;;;4960446;28;20228;-87
2021/01/23 09:37:02;;;;;;;14.70;5.33;;;7.60;99.90;;;;;;4973421;28;20185;-87
2021/01/23 09:39:30;;;;;;;15.63;5.50;;;7.50;99.90;;;;;;4975787;28;20784;-87
2021/01/23 09:41:57;;;;;;;18.43;5.70;;;7.40;99.90;;;;;;4958187;28;20189;-88
2021/01/23 09:44:22;;;;;;;12.93;5.93;;;7.40;99.90;;;;;;4972615;28;20223;-87
2021/01/23 09:46:49;;;;;;;21.97;6.50;;;7.50;99.90;;;;;;4974688;28;20199;-87
2021/01/23 09:49:15;;;;;;;13.70;5.47;;;7.60;99.90;;;;;;4957152;28;20182;-87
2021/01/23 09:51:41;;;;;;;13.90;5.57;;;7.70;99.90;;;;;;4974964;28;20893;-87
2021/01/23 09:54:06;;;;;;;13.00;5.30;;;7.70;99.90;;;;;;4959464;28;20194;-86
2021/01/23 09:56:32;;;;;;;17.20;5.53;;;7.50;99.90;;;;;;4989327;28;20189;-87
2021/01/23 09:58:58;;;;;;;15.00;5.27;;;7.60;99.90;;;;;;4973159;28;20191;-88
2021/01/23 10:01:23;;;;;;;17.77;5.07;;;7.90;99.90;;;;;;4975721;28;20194;-89
2021/01/23 10:03:49;;;;;;;12.50;5.10;;;7.90;99.90;;;;;;4973450;28;20179;-86
2021/01/23 10:06:15;;;;;;;12.70;5.23;;;7.90;99.90;;;;;;4958908;28;20179;-86
2021/01/23 10:08:43;;;;;;;13.50;4.97;;;7.90;99.90;;;;;;4957938;28;20200;-86
2021/01/23 10:11:09;;;;;;;19.27;5.37;;;7.80;99.90;;;;;;4974605;28;20189;-87
2021/01/23 10:13:35;;;;;;;12.60;4.47;;;7.80;99.90;;;;;;4956047;28;20715;-86
2021/01/23 10:16:01;;;;;;;15.33;5.03;;;7.70;99.90;;;;;;4989750;28;20175;-86
2021/01/23 10:18:27;;;;;;;12.50;4.47;;;7.80;99.90;;;;;;4961221;28;20190;-87
2021/01/23 10:20:54;;;;;;;14.67;4.67;;;7.80;99.90;;;;;;4955642;28;20190;-87
2021/01/23 10:23:20;;;;;;;12.87;3.97;;;8.00;99.90;;;;;;4972755;28;20317;-87
2021/01/23 10:25:46;;;;;;;16.60;4.63;;;8.20;99.90;;;;;;4990781;28;20238;-87
2021/01/23 10:28:12;;;;;;;13.87;4.43;;;8.40;99.90;;;;;;4957697;28;20201;-87
2021/01/23 10:30:37;;;;;;;9.60;4.30;;;8.50;99.90;;;;;;4959329;28;20197;-86
2021/01/23 10:33:03;;;;;;;13.57;4.10;;;8.70;99.90;;;;;;4973230;28;20190;-87
2021/01/23 10:35:29;;;;;;;12.33;3.47;;;8.70;99.90;;;;;;4989096;28;20179;-87
2021/01/23 10:37:54;;;;;;;16.63;4.13;;;8.70;99.90;;;;;;4968816;28;20242;-86
2021/01/23 10:40:20;;;;;;;12.60;3.80;;;8.60;99.90;;;;;;4974238;28;20203;-87
2021/01/23 10:42:46;;;;;;;10.67;3.47;;;8.50;99.90;;;;;;4977132;28;20191;-87
2021/01/23 10:45:12;;;;;;;11.57;3.50;;;8.70;99.90;;;;;;4971592;28;20689;-86
2021/01/23 10:47:38;;;;;;;11.00;3.30;;;8.80;99.90;;;;;;4978862;28;20225;-87
2021/01/23 10:50:05;;;;;;;11.93;3.40;;;9.00;99.90;;;;;;4972306;28;20187;-87
2021/01/23 10:52:31;;;;;;;11.07;3.33;;;9.00;99.90;;;;;;4973658;28;20186;-85
2021/01/23 10:54:57;;;;;;;14.53;3.07;;;9.00;99.90;;;;;;4977845;28;20284;-86
2021/01/23 10:57:22;;;;;;;13.03;3.47;;;8.90;99.90;;;;;;4956012;28;20203;-86
2021/01/23 10:59:48;;;;;;;10.70;3.27;;;9.00;99.90;;;;;;4964462;28;20210;-87
2021/01/23 11:02:14;;;;;;;10.40;3.30;;;9.20;99.90;;;;;;4991862;28;20183;-86
2021/01/23 11:04:40;;;;;;;12.10;3.23;;;9.30;99.90;;;;;;4959884;28;20203;-87
2021/01/23 11:07:06;;;;;;;11.93;2.60;;;9.30;99.90;;;;;;4978370;28;20697;-86
2021/01/23 11:09:31;;;;;;;10.77;3.00;;;9.20;99.90;;;;;;4975913;28;20206;-86
2021/01/23 11:11:57;;;;;;;11.77;3.47;;;9.20;99.90;;;;;;4963700;28;20186;-86
2021/01/23 11:14:23;;;;;;;12.10;2.90;;;8.90;99.90;;;;;;4980311;28;20599;-84
2021/01/23 11:16:49;;;;;;;11.83;3.10;;;8.60;99.90;;;;;;4994901;28;20190;-85
2021/01/23 11:19:16;;;;;;;15.90;4.00;;;8.20;99.90;;;;;;4981412;28;20218;-86
2021/01/23 11:21:42;;;;;;;12.77;3.17;;;8.10;99.90;;;;;;4976754;28;20536;-86
2021/01/23 11:24:08;;;;;;;11.40;2.40;;;8.20;99.90;;;;;;4976768;28;20206;-86
2021/01/23 11:26:37;;;;;;;9.60;2.90;;;8.30;99.90;;;;;;4965763;28;20231;-86
2021/01/23 11:29:02;;;;;;;16.23;3.57;;;8.30;99.90;;;;;;4993143;28;20183;-86
2021/01/23 11:31:28;;;;;;;13.47;3.20;;;8.60;99.90;;;;;;4981699;28;20712;-85
2021/01/23 11:33:54;;;;;;;12.90;2.80;;;8.80;99.90;;;;;;4978010;28;20187;-86
2021/01/23 11:36:20;;;;;;;32.27;3.90;;;8.90;99.90;;;;;;4977398;28;20187;-87
2021/01/23 11:38:45;;;;;;;10.23;3.03;;;9.00;99.90;;;;;;4958554;28;20274;-87
2021/01/23 11:41:11;;;;;;;10.37;2.57;;;9.30;99.90;;;;;;4975740;28;20214;-87
2021/01/23 11:43:37;;;;;;;13.03;3.07;;;9.30;99.90;;;;;;4977814;28;20206;-86
2021/01/23 11:46:03;;;;;;;12.03;2.90;;;9.30;99.90;;;;;;4975577;28;20265;-87
2021/01/23 11:48:30;;;;;;;17.87;3.50;;;9.30;99.90;;;;;;4959913;28;20199;-86
2021/01/23 11:50:56;;;;;;;12.57;2.83;;;9.20;99.90;;;;;;4980464;28;20179;-84
2021/01/23 11:53:22;;;;;;;14.47;2.90;;;9.10;99.90;;;;;;4958556;28;20198;-86
2021/01/23 11:55:49;;;;;;;19.83;3.53;;;8.90;99.90;;;;;;4980890;28;20649;-87
2021/01/23 11:58:15;;;;;;;9.13;3.13;;;8.90;99.90;;;;;;4992500;28;20180;-87
2021/01/23 12:00:41;;;;;;;11.90;2.57;;;9.10;99.90;;;;;;4976770;28;20215;-86
2021/01/23 12:03:07;;;;;;;12.73;3.30;;;8.90;99.90;;;;;;4997246;28;20229;-87
2021/01/23 12:05:33;;;;;;;9.90;3.27;;;8.70;99.90;;;;;;4959493;28;20310;-87
2021/01/23 12:07:59;;;;;;;18.73;4.07;;;8.40;99.90;;;;;;4975911;28;20198;-86
2021/01/23 12:10:25;;;;;;;10.83;3.70;;;8.50;99.90;;;;;;4954379;28;20630;-85
2021/01/23 12:12:51;;;;;;;9.87;3.00;;;8.60;99.90;;;;;;4957373;28;20227;-86
2021/01/23 12:15:18;;;;;;;10.53;3.30;;;8.20;99.90;;;;;;4977259;28;20608;-86
2021/01/23 12:17:44;;;;;;;11.63;3.40;;;8.00;99.90;;;;;;4957577;28;20195;-87
2021/01/23 12:20:11;;;;;;;13.23;3.40;;;8.00;99.90;;;;;;4960492;28;20199;-87
2021/01/23 12:22:38;;;;;;;11.70;3.87;;;8.30;99.90;;;;;;4973699;28;20250;-87
2021/01/23 12:25:05;;;;;;;13.43;3.07;;;8.50;99.90;;;;;;4957264;28;20322;-87
2021/01/23 12:27:31;;;;;;;12.07;2.90;;;8.70;99.90;;;;;;4977280;28;20266;-86
2021/01/23 12:29:57;;;;;;;11.17;2.67;;;8.80;99.90;;;;;;4990870;28;20271;-87
2021/01/23 12:32:23;;;;;;;12.40;2.90;;;8.90;99.90;;;;;;4992013;28;20219;-87
2021/01/23 12:34:48;;;;;;;10.60;2.60;;;8.80;99.90;;;;;;4962327;28;20218;-86
2021/01/23 12:37:14;;;;;;;12.10;2.77;;;8.60;99.90;;;;;;4960591;28;20202;-88
2021/01/23 12:39:40;;;;;;;13.33;2.80;;;8.60;99.90;;;;;;4955436;23;20326;-76
2021/01/23 12:42:06;;;;;;;7.53;2.60;;;8.60;99.90;;;;;;4951321;28;20219;-76
2021/01/23 12:44:32;;;;;;;9.33;2.27;;;8.60;99.90;;;;;;4953522;28;20228;-76
2021/01/23 12:46:58;;;;;;;9.43;2.73;;;8.60;99.90;;;;;;4956383;28;20583;-76
2021/01/23 12:49:23;;;;;;;10.00;2.90;;;8.70;99.90;;;;;;4950613;28;20292;-76
2021/01/23 12:51:50;;;;;;;10.07;2.53;;;8.50;99.90;;;;;;4951990;28;20210;-76
2021/01/23 12:54:15;;;;;;;12.47;2.30;;;8.50;99.90;;;;;;4954216;28;20563;-77
2021/01/23 12:56:42;;;;;;;11.27;2.53;;;8.30;99.90;;;;;;4954871;28;20191;-76